sensor_id;sensor_type;location;lat;lon;timestamp;temperature;humidity
9564;DHT22;4820;50.870;4.702;2023-11-19T00:00:43;13.40;99.90
9564;DHT22;4820;50.870;4.702;2023-11-19T00:03:09;13.40;99.90
9564;DHT22;4820;50.870;4.702;2023-11-19T00:05:37;13.40;99.90
9564;DHT22;4820;50.870;4.702;2023-11-19T00:08:03;13.40;99.90
9564;DHT22;4820;50.870;4.702;2023-11-19T00:10:29;13.50;99.90
9564;DHT22;4820;50.870;4.702;2023-11-19T00:12:54;13.50;99.90
9564;DHT22;4820;50.870;4.702;2023-11-19T00:15:22;13.50;99.90
9564;DHT22;4820;50.870;4.702;2023-11-19T00:17:49;13.50;99.90
9564;DHT22;4820;50.870;4.702;2023-11-19T00:20:19;13.60;99.90
9564;DHT22;4820;50.870;4.702;2023-11-19T00:22:45;13.60;99.90
9564;DHT22;4820;50.870;4.702;2023-11-19T00:25:14;13.60;99.90
9564;DHT22;4820;50.870;4.702;2023-11-19T00:27:39;13.70;99.90
9564;DHT22;4820;50.870;4.702;2023-11-19T00:30:07;13.70;99.90
9564;DHT22;4820;50.870;4.702;2023-11-19T00:32:36;13.70;99.90
9564;DHT22;4820;50.870;4.702;2023-11-19T00:35:07;13.70;99.90
9564;DHT22;4820;50.870;4.702;2023-11-19T00:37:33;13.70;99.90
9564;DHT22;4820;50.870;4.702;2023-11-19T00:39:59;13.70;99.90
9564;DHT22;4820;50.870;4.702;2023-11-19T00:42:25;13.70;99.90
9564;DHT22;4820;50.870;4.702;2023-11-19T00:44:51;13.70;99.90
9564;DHT22;4820;50.870;4.702;2023-11-19T00:47:17;13.80;99.90
9564;DHT22;4820;50.870;4.702;2023-11-19T00:49:46;13.80;99.90
9564;DHT22;4820;50.870;4.702;2023-11-19T00:52:14;13.80;99.90
9564;DHT22;4820;50.870;4.702;2023-11-19T00:54:40;13.80;99.90
9564;DHT22;4820;50.870;4.702;2023-11-19T00:57:06;13.80;99.90
9564;DHT22;4820;50.870;4.702;2023-11-19T00:59:31;13.80;99.90
9564;DHT22;4820;50.870;4.702;2023-11-19T01:01:58;13.80;99.90
9564;DHT22;4820;50.870;4.702;2023-11-19T01:04:37;13.80;99.90
9564;DHT22;4820;50.870;4.702;2023-11-19T01:07:04;13.80;99.90
9564;DHT22;4820;50.870;4.702;2023-11-19T01:09:31;13.80;99.90
9564;DHT22;4820;50.870;4.702;2023-11-19T01:12:02;13.80;99.90
9564;DHT22;4820;50.870;4.702;2023-11-19T01:14:28;13.80;99.90
9564;DHT22;4820;50.870;4.702;2023-11-19T01:16:54;13.80;99.90
9564;DHT22;4820;50.870;4.702;2023-11-19T01:19:21;13.80;99.90
9564;DHT22;4820;50.870;4.702;2023-11-19T01:21:48;13.80;99.90
9564;DHT22;4820;50.870;4.702;2023-11-19T01:24:13;13.80;99.90
9564;DHT22;4820;50.870;4.702;2023-11-19T01:26:40;13.90;99.90
9564;DHT22;4820;50.870;4.702;2023-11-19T01:29:12;13.90;99.90
9564;DHT22;4820;50.870;4.702;2023-11-19T01:31:43;13.90;99.90
9564;DHT22;4820;50.870;4.702;2023-11-19T01:34:10;13.90;99.90
9564;DHT22;4820;50.870;4.702;2023-11-19T01:36:36;13.90;99.90
9564;DHT22;4820;50.870;4.702;2023-11-19T01:39:02;13.90;99.90
9564;DHT22;4820;50.870;4.702;2023-11-19T01:41:36;13.90;99.90
9564;DHT22;4820;50.870;4.702;2023-11-19T01:44:02;13.90;99.90
9564;DHT22;4820;50.870;4.702;2023-11-19T01:46:29;13.90;99.90
9564;DHT22;4820;50.870;4.702;2023-11-19T01:48:55;13.90;99.90
9564;DHT22;4820;50.870;4.702;2023-11-19T01:51:21;13.90;99.90
9564;DHT22;4820;50.870;4.702;2023-11-19T01:53:48;13.90;99.90
9564;DHT22;4820;50.870;4.702;2023-11-19T01:56:15;13.90;99.90
9564;DHT22;4820;50.870;4.702;2023-11-19T01:58:43;13.90;99.90
9564;DHT22;4820;50.870;4.702;2023-11-19T02:01:11;13.90;99.90
9564;DHT22;4820;50.870;4.702;2023-11-19T02:03:38;13.90;99.90
9564;DHT22;4820;50.870;4.702;2023-11-19T02:06:04;13.90;99.90
9564;DHT22;4820;50.870;4.702;2023-11-19T02:08:30;13.80;99.90
9564;DHT22;4820;50.870;4.702;2023-11-19T02:10:56;13.80;99.90
9564;DHT22;4820;50.870;4.702;2023-11-19T02:13:26;13.80;99.90
9564;DHT22;4820;50.870;4.702;2023-11-19T02:15:52;13.80;99.90
9564;DHT22;4820;50.870;4.702;2023-11-19T02:18:22;13.70;99.90
9564;DHT22;4820;50.870;4.702;2023-11-19T02:20:49;13.70;99.90
9564;DHT22;4820;50.870;4.702;2023-11-19T02:23:16;13.60;99.90
9564;DHT22;4820;50.870;4.702;2023-11-19T02:25:45;13.60;99.90
9564;DHT22;4820;50.870;4.702;2023-11-19T02:28:12;13.60;99.90
9564;DHT22;4820;50.870;4.702;2023-11-19T02:30:38;13.50;99.90
9564;DHT22;4820;50.870;4.702;2023-11-19T02:33:04;13.50;99.90
9564;DHT22;4820;50.870;4.702;2023-11-19T02:35:34;13.40;99.90
9564;DHT22;4820;50.870;4.702;2023-11-19T02:38:00;13.40;99.90
9564;DHT22;4820;50.870;4.702;2023-11-19T02:40:26;13.40;99.90
9564;DHT22;4820;50.870;4.702;2023-11-19T02:42:54;13.40;99.90
9564;DHT22;4820;50.870;4.702;2023-11-19T02:45:24;13.40;99.90
9564;DHT22;4820;50.870;4.702;2023-11-19T02:47:51;13.40;99.90
9564;DHT22;4820;50.870;4.702;2023-11-19T02:50:20;13.40;99.90
9564;DHT22;4820;50.870;4.702;2023-11-19T02:52:54;13.40;99.90
9564;DHT22;4820;50.870;4.702;2023-11-19T02:55:22;13.40;99.90
9564;DHT22;4820;50.870;4.702;2023-11-19T02:57:49;13.40;99.90
9564;DHT22;4820;50.870;4.702;2023-11-19T03:00:17;13.30;99.90
9564;DHT22;4820;50.870;4.702;2023-11-19T03:02:44;13.30;99.90
9564;DHT22;4820;50.870;4.702;2023-11-19T03:05:14;13.30;99.90
9564;DHT22;4820;50.870;4.702;2023-11-19T03:07:44;13.30;99.90
9564;DHT22;4820;50.870;4.702;2023-11-19T03:10:10;13.30;99.90
9564;DHT22;4820;50.870;4.702;2023-11-19T03:12:40;13.40;99.90
9564;DHT22;4820;50.870;4.702;2023-11-19T03:15:07;13.40;99.90
9564;DHT22;4820;50.870;4.702;2023-11-19T03:17:33;13.40;99.90
9564;DHT22;4820;50.870;4.702;2023-11-19T03:20:00;13.40;99.90
9564;DHT22;4820;50.870;4.702;2023-11-19T03:22:26;13.30;99.90
9564;DHT22;4820;50.870;4.702;2023-11-19T03:24:52;13.30;99.90
9564;DHT22;4820;50.870;4.702;2023-11-19T03:27:18;13.30;99.90
9564;DHT22;4820;50.870;4.702;2023-11-19T03:29:44;13.30;99.90
9564;DHT22;4820;50.870;4.702;2023-11-19T03:32:10;13.30;99.90
9564;DHT22;4820;50.870;4.702;2023-11-19T03:34:37;13.30;99.90
9564;DHT22;4820;50.870;4.702;2023-11-19T03:37:04;13.30;99.90
9564;DHT22;4820;50.870;4.702;2023-11-19T03:39:29;13.30;99.90
9564;DHT22;4820;50.870;4.702;2023-11-19T03:41:55;13.20;99.90
9564;DHT22;4820;50.870;4.702;2023-11-19T03:44:21;13.20;99.90
9564;DHT22;4820;50.870;4.702;2023-11-19T03:46:47;13.20;99.90
9564;DHT22;4820;50.870;4.702;2023-11-19T03:49:13;13.20;99.90
9564;DHT22;4820;50.870;4.702;2023-11-19T03:51:38;13.20;99.90
9564;DHT22;4820;50.870;4.702;2023-11-19T03:54:06;13.10;99.90
9564;DHT22;4820;50.870;4.702;2023-11-19T03:56:32;13.10;99.90
9564;DHT22;4820;50.870;4.702;2023-11-19T03:58:58;13.10;99.90
9564;DHT22;4820;50.870;4.702;2023-11-19T04:01:25;13.10;99.90
9564;DHT22;4820;50.870;4.702;2023-11-19T04:03:50;13.00;99.90
9564;DHT22;4820;50.870;4.702;2023-11-19T04:06:16;12.90;99.90
9564;DHT22;4820;50.870;4.702;2023-11-19T04:08:42;12.90;99.90
9564;DHT22;4820;50.870;4.702;2023-11-19T04:11:08;13.00;99.90
9564;DHT22;4820;50.870;4.702;2023-11-19T04:13:34;12.90;99.90
9564;DHT22;4820;50.870;4.702;2023-11-19T04:16:00;12.80;99.90
9564;DHT22;4820;50.870;4.702;2023-11-19T04:18:26;12.80;99.90
9564;DHT22;4820;50.870;4.702;2023-11-19T04:20:52;12.80;99.90
9564;DHT22;4820;50.870;4.702;2023-11-19T04:23:18;12.80;99.90
9564;DHT22;4820;50.870;4.702;2023-11-19T04:25:44;12.80;99.90
9564;DHT22;4820;50.870;4.702;2023-11-19T04:28:09;12.90;99.90
9564;DHT22;4820;50.870;4.702;2023-11-19T04:30:35;12.90;99.90
9564;DHT22;4820;50.870;4.702;2023-11-19T04:33:01;12.90;99.90
9564;DHT22;4820;50.870;4.702;2023-11-19T04:35:26;12.90;99.90
9564;DHT22;4820;50.870;4.702;2023-11-19T04:37:52;12.90;99.90
9564;DHT22;4820;50.870;4.702;2023-11-19T04:40:18;12.90;99.90
9564;DHT22;4820;50.870;4.702;2023-11-19T04:42:44;12.90;99.90
9564;DHT22;4820;50.870;4.702;2023-11-19T04:45:10;12.90;99.90
9564;DHT22;4820;50.870;4.702;2023-11-19T04:47:36;12.90;99.90
9564;DHT22;4820;50.870;4.702;2023-11-19T04:50:02;12.80;99.90
9564;DHT22;4820;50.870;4.702;2023-11-19T04:52:29;12.80;99.90
9564;DHT22;4820;50.870;4.702;2023-11-19T04:54:55;12.80;99.90
9564;DHT22;4820;50.870;4.702;2023-11-19T04:57:20;12.80;99.90
9564;DHT22;4820;50.870;4.702;2023-11-19T04:59:46;12.80;99.90
9564;DHT22;4820;50.870;4.702;2023-11-19T05:02:12;12.80;99.90
9564;DHT22;4820;50.870;4.702;2023-11-19T05:04:42;12.80;99.90
9564;DHT22;4820;50.870;4.702;2023-11-19T05:07:09;12.80;99.90
9564;DHT22;4820;50.870;4.702;2023-11-19T05:09:35;12.80;99.90
9564;DHT22;4820;50.870;4.702;2023-11-19T05:12:01;12.80;99.90
9564;DHT22;4820;50.870;4.702;2023-11-19T05:14:27;12.80;99.90
9564;DHT22;4820;50.870;4.702;2023-11-19T05:16:53;12.70;99.90
9564;DHT22;4820;50.870;4.702;2023-11-19T05:19:19;12.70;99.90
9564;DHT22;4820;50.870;4.702;2023-11-19T05:21:44;12.80;99.90
9564;DHT22;4820;50.870;4.702;2023-11-19T05:24:10;12.80;99.90
9564;DHT22;4820;50.870;4.702;2023-11-19T05:26:38;12.80;99.90
9564;DHT22;4820;50.870;4.702;2023-11-19T05:29:03;12.70;99.90
9564;DHT22;4820;50.870;4.702;2023-11-19T05:31:30;12.70;99.90
9564;DHT22;4820;50.870;4.702;2023-11-19T05:33:55;12.70;99.90
9564;DHT22;4820;50.870;4.702;2023-11-19T05:36:22;12.60;99.90
9564;DHT22;4820;50.870;4.702;2023-11-19T05:38:48;12.60;99.90
9564;DHT22;4820;50.870;4.702;2023-11-19T05:41:14;12.60;99.90
9564;DHT22;4820;50.870;4.702;2023-11-19T05:43:40;12.60;99.90
9564;DHT22;4820;50.870;4.702;2023-11-19T05:46:07;12.60;99.90
9564;DHT22;4820;50.870;4.702;2023-11-19T05:48:32;12.50;99.90
9564;DHT22;4820;50.870;4.702;2023-11-19T05:50:58;12.50;99.90
9564;DHT22;4820;50.870;4.702;2023-11-19T05:53:24;12.50;99.90
9564;DHT22;4820;50.870;4.702;2023-11-19T05:55:50;12.50;99.90
9564;DHT22;4820;50.870;4.702;2023-11-19T05:58:27;12.40;99.90
9564;DHT22;4820;50.870;4.702;2023-11-19T06:00:57;12.40;99.90
9564;DHT22;4820;50.870;4.702;2023-11-19T06:03:26;12.40;99.90
9564;DHT22;4820;50.870;4.702;2023-11-19T06:05:52;12.40;99.90
9564;DHT22;4820;50.870;4.702;2023-11-19T06:08:20;12.50;99.90
9564;DHT22;4820;50.870;4.702;2023-11-19T06:10:46;12.50;99.90
9564;DHT22;4820;50.870;4.702;2023-11-19T06:13:15;12.40;99.90
9564;DHT22;4820;50.870;4.702;2023-11-19T06:15:44;12.40;99.90
9564;DHT22;4820;50.870;4.702;2023-11-19T06:18:11;12.40;99.90
9564;DHT22;4820;50.870;4.702;2023-11-19T06:20:38;12.40;99.90
9564;DHT22;4820;50.870;4.702;2023-11-19T06:23:04;12.30;99.90
9564;DHT22;4820;50.870;4.702;2023-11-19T06:25:30;12.40;99.90
9564;DHT22;4820;50.870;4.702;2023-11-19T06:27:56;12.30;99.90
9564;DHT22;4820;50.870;4.702;2023-11-19T06:30:22;12.30;99.90
9564;DHT22;4820;50.870;4.702;2023-11-19T06:32:48;12.30;99.90
9564;DHT22;4820;50.870;4.702;2023-11-19T06:35:14;12.30;99.90
9564;DHT22;4820;50.870;4.702;2023-11-19T06:37:40;12.20;99.90
9564;DHT22;4820;50.870;4.702;2023-11-19T06:40:07;12.20;99.90
9564;DHT22;4820;50.870;4.702;2023-11-19T06:42:35;12.10;99.90
9564;DHT22;4820;50.870;4.702;2023-11-19T06:45:01;12.10;99.90
9564;DHT22;4820;50.870;4.702;2023-11-19T06:47:28;12.10;99.90
9564;DHT22;4820;50.870;4.702;2023-11-19T06:49:54;12.10;99.90
9564;DHT22;4820;50.870;4.702;2023-11-19T06:52:20;12.00;99.90
9564;DHT22;4820;50.870;4.702;2023-11-19T06:54:45;12.00;99.90
9564;DHT22;4820;50.870;4.702;2023-11-19T06:57:11;11.90;99.90
9564;DHT22;4820;50.870;4.702;2023-11-19T06:59:37;11.90;99.90
9564;DHT22;4820;50.870;4.702;2023-11-19T07:02:03;11.90;99.90
9564;DHT22;4820;50.870;4.702;2023-11-19T07:04:30;11.90;99.90
9564;DHT22;4820;50.870;4.702;2023-11-19T07:06:56;11.90;99.90
9564;DHT22;4820;50.870;4.702;2023-11-19T07:09:22;11.90;99.90
9564;DHT22;4820;50.870;4.702;2023-11-19T07:11:49;11.90;99.90
9564;DHT22;4820;50.870;4.702;2023-11-19T07:14:16;11.90;99.90
9564;DHT22;4820;50.870;4.702;2023-11-19T07:16:42;11.90;99.90
9564;DHT22;4820;50.870;4.702;2023-11-19T07:19:08;11.90;99.90
9564;DHT22;4820;50.870;4.702;2023-11-19T07:21:34;11.90;99.90
9564;DHT22;4820;50.870;4.702;2023-11-19T07:24:01;11.90;99.90
9564;DHT22;4820;50.870;4.702;2023-11-19T07:26:27;11.90;99.90
9564;DHT22;4820;50.870;4.702;2023-11-19T07:28:53;11.90;99.90
9564;DHT22;4820;50.870;4.702;2023-11-19T07:31:19;11.90;99.90
9564;DHT22;4820;50.870;4.702;2023-11-19T07:33:45;11.80;99.90
9564;DHT22;4820;50.870;4.702;2023-11-19T07:36:12;11.90;99.90
9564;DHT22;4820;50.870;4.702;2023-11-19T07:38:38;11.80;99.90
9564;DHT22;4820;50.870;4.702;2023-11-19T07:41:05;11.90;99.90
9564;DHT22;4820;50.870;4.702;2023-11-19T07:43:31;11.90;99.90
9564;DHT22;4820;50.870;4.702;2023-11-19T07:45:57;11.90;99.90
9564;DHT22;4820;50.870;4.702;2023-11-19T07:48:25;11.90;99.90
9564;DHT22;4820;50.870;4.702;2023-11-19T07:50:52;11.90;99.90
9564;DHT22;4820;50.870;4.702;2023-11-19T07:53:18;11.90;99.90
9564;DHT22;4820;50.870;4.702;2023-11-19T07:55:43;11.90;99.90
9564;DHT22;4820;50.870;4.702;2023-11-19T07:58:10;11.90;99.90
9564;DHT22;4820;50.870;4.702;2023-11-19T08:00:36;12.00;99.90
9564;DHT22;4820;50.870;4.702;2023-11-19T08:03:03;11.90;99.90
9564;DHT22;4820;50.870;4.702;2023-11-19T08:05:30;12.00;99.90
9564;DHT22;4820;50.870;4.702;2023-11-19T08:07:56;12.00;99.90
9564;DHT22;4820;50.870;4.702;2023-11-19T08:10:22;12.00;99.90
9564;DHT22;4820;50.870;4.702;2023-11-19T08:12:48;12.00;99.90
9564;DHT22;4820;50.870;4.702;2023-11-19T08:15:14;12.00;99.90
9564;DHT22;4820;50.870;4.702;2023-11-19T08:17:41;12.10;99.90
9564;DHT22;4820;50.870;4.702;2023-11-19T08:20:08;12.20;99.90
9564;DHT22;4820;50.870;4.702;2023-11-19T08:22:37;12.20;99.90
9564;DHT22;4820;50.870;4.702;2023-11-19T08:25:07;12.20;99.90
9564;DHT22;4820;50.870;4.702;2023-11-19T08:27:33;12.20;99.90
9564;DHT22;4820;50.870;4.702;2023-11-19T08:29:59;12.20;99.90
9564;DHT22;4820;50.870;4.702;2023-11-19T08:32:25;12.30;99.90
9564;DHT22;4820;50.870;4.702;2023-11-19T08:34:51;12.30;99.90
9564;DHT22;4820;50.870;4.702;2023-11-19T08:37:17;12.30;99.90
9564;DHT22;4820;50.870;4.702;2023-11-19T08:39:49;12.30;99.90
9564;DHT22;4820;50.870;4.702;2023-11-19T08:42:16;12.30;99.90
9564;DHT22;4820;50.870;4.702;2023-11-19T08:44:43;12.30;99.90
9564;DHT22;4820;50.870;4.702;2023-11-19T08:47:12;12.30;99.90
9564;DHT22;4820;50.870;4.702;2023-11-19T08:49:39;12.40;99.90
9564;DHT22;4820;50.870;4.702;2023-11-19T08:52:05;12.40;99.90
9564;DHT22;4820;50.870;4.702;2023-11-19T08:54:33;12.40;99.90
9564;DHT22;4820;50.870;4.702;2023-11-19T08:56:59;12.50;99.90
9564;DHT22;4820;50.870;4.702;2023-11-19T08:59:29;12.60;99.90
9564;DHT22;4820;50.870;4.702;2023-11-19T09:01:54;12.60;99.90
9564;DHT22;4820;50.870;4.702;2023-11-19T09:04:20;12.70;99.90
9564;DHT22;4820;50.870;4.702;2023-11-19T09:06:48;12.80;99.90
9564;DHT22;4820;50.870;4.702;2023-11-19T09:09:14;12.80;99.90
9564;DHT22;4820;50.870;4.702;2023-11-19T09:11:40;12.80;99.90
9564;DHT22;4820;50.870;4.702;2023-11-19T09:14:06;12.80;99.90
9564;DHT22;4820;50.870;4.702;2023-11-19T09:16:31;12.70;99.90
9564;DHT22;4820;50.870;4.702;2023-11-19T09:18:58;12.70;99.90
9564;DHT22;4820;50.870;4.702;2023-11-19T09:21:25;12.70;99.90
9564;DHT22;4820;50.870;4.702;2023-11-19T09:23:51;12.70;99.90
9564;DHT22;4820;50.870;4.702;2023-11-19T09:26:16;12.70;99.90
9564;DHT22;4820;50.870;4.702;2023-11-19T09:28:42;12.80;99.90
9564;DHT22;4820;50.870;4.702;2023-11-19T09:31:15;12.80;99.90
9564;DHT22;4820;50.870;4.702;2023-11-19T09:33:41;12.80;99.90
9564;DHT22;4820;50.870;4.702;2023-11-19T09:36:08;12.80;99.90
9564;DHT22;4820;50.870;4.702;2023-11-19T09:38:34;12.80;99.90
9564;DHT22;4820;50.870;4.702;2023-11-19T09:41:04;12.80;99.90
9564;DHT22;4820;50.870;4.702;2023-11-19T09:43:34;12.90;99.90
9564;DHT22;4820;50.870;4.702;2023-11-19T09:46:08;12.90;99.90
9564;DHT22;4820;50.870;4.702;2023-11-19T09:48:37;12.90;99.90
9564;DHT22;4820;50.870;4.702;2023-11-19T09:51:07;12.90;99.90
9564;DHT22;4820;50.870;4.702;2023-11-19T09:53:37;13.00;99.90
9564;DHT22;4820;50.870;4.702;2023-11-19T09:56:04;13.00;99.90
9564;DHT22;4820;50.870;4.702;2023-11-19T09:58:34;13.00;99.90
9564;DHT22;4820;50.870;4.702;2023-11-19T10:01:01;13.00;99.90
9564;DHT22;4820;50.870;4.702;2023-11-19T10:03:33;13.00;99.90
9564;DHT22;4820;50.870;4.702;2023-11-19T10:06:00;13.00;99.90
9564;DHT22;4820;50.870;4.702;2023-11-19T10:08:26;13.00;99.90
9564;DHT22;4820;50.870;4.702;2023-11-19T10:10:52;13.10;99.90
9564;DHT22;4820;50.870;4.702;2023-11-19T10:13:19;13.20;99.90
9564;DHT22;4820;50.870;4.702;2023-11-19T10:15:44;13.40;99.90
9564;DHT22;4820;50.870;4.702;2023-11-19T10:18:10;13.40;99.90
9564;DHT22;4820;50.870;4.702;2023-11-19T10:20:36;13.40;99.90
9564;DHT22;4820;50.870;4.702;2023-11-19T10:23:02;13.40;99.90
9564;DHT22;4820;50.870;4.702;2023-11-19T10:25:29;13.30;99.90
9564;DHT22;4820;50.870;4.702;2023-11-19T10:27:55;13.30;99.90
9564;DHT22;4820;50.870;4.702;2023-11-19T10:30:31;13.20;99.90
9564;DHT22;4820;50.870;4.702;2023-11-19T10:35:59;13.30;99.90
9564;DHT22;4820;50.870;4.702;2023-11-19T10:38:27;13.30;99.90
9564;DHT22;4820;50.870;4.702;2023-11-19T10:40:54;13.40;99.90
9564;DHT22;4820;50.870;4.702;2023-11-19T10:43:23;13.40;99.90
9564;DHT22;4820;50.870;4.702;2023-11-19T10:45:49;13.40;99.90
9564;DHT22;4820;50.870;4.702;2023-11-19T10:48:15;13.50;99.90
9564;DHT22;4820;50.870;4.702;2023-11-19T10:50:42;13.60;99.90
9564;DHT22;4820;50.870;4.702;2023-11-19T10:53:10;13.60;99.90
9564;DHT22;4820;50.870;4.702;2023-11-19T10:55:37;13.70;99.90
9564;DHT22;4820;50.870;4.702;2023-11-19T10:58:09;13.70;99.90
9564;DHT22;4820;50.870;4.702;2023-11-19T11:00:44;13.80;99.90
9564;DHT22;4820;50.870;4.702;2023-11-19T11:03:21;13.80;99.90
9564;DHT22;4820;50.870;4.702;2023-11-19T11:05:49;13.80;99.90
9564;DHT22;4820;50.870;4.702;2023-11-19T11:08:16;13.70;99.90
9564;DHT22;4820;50.870;4.702;2023-11-19T11:10:59;13.70;99.90
9564;DHT22;4820;50.870;4.702;2023-11-19T11:13:26;13.70;99.90
9564;DHT22;4820;50.870;4.702;2023-11-19T11:15:55;13.70;99.90
9564;DHT22;4820;50.870;4.702;2023-11-19T11:18:21;13.70;99.90
9564;DHT22;4820;50.870;4.702;2023-11-19T11:20:49;13.70;99.90
9564;DHT22;4820;50.870;4.702;2023-11-19T11:28:57;13.70;99.90
9564;DHT22;4820;50.870;4.702;2023-11-19T11:31:48;13.70;99.90
9564;DHT22;4820;50.870;4.702;2023-11-19T11:37:33;13.70;99.90
9564;DHT22;4820;50.870;4.702;2023-11-19T11:40:02;13.70;99.90
9564;DHT22;4820;50.870;4.702;2023-11-19T11:42:32;13.70;99.90
9564;DHT22;4820;50.870;4.702;2023-11-19T11:55:37;13.70;99.90
9564;DHT22;4820;50.870;4.702;2023-11-19T11:58:03;13.70;99.90
9564;DHT22;4820;50.870;4.702;2023-11-19T12:00:36;13.90;99.90
9564;DHT22;4820;50.870;4.702;2023-11-19T12:03:06;14.00;99.90
9564;DHT22;4820;50.870;4.702;2023-11-19T12:05:33;14.10;99.90
9564;DHT22;4820;50.870;4.702;2023-11-19T12:08:06;14.10;99.90
9564;DHT22;4820;50.870;4.702;2023-11-19T12:10:46;14.00;99.90
9564;DHT22;4820;50.870;4.702;2023-11-19T12:13:13;14.00;99.90
9564;DHT22;4820;50.870;4.702;2023-11-19T12:18:32;14.20;99.90
9564;DHT22;4820;50.870;4.702;2023-11-19T12:20:59;14.30;99.90
9564;DHT22;4820;50.870;4.702;2023-11-19T12:23:31;14.30;99.90
9564;DHT22;4820;50.870;4.702;2023-11-19T12:25:58;14.30;99.90
9564;DHT22;4820;50.870;4.702;2023-11-19T12:28:24;14.40;99.90
9564;DHT22;4820;50.870;4.702;2023-11-19T12:30:52;14.30;99.90
9564;DHT22;4820;50.870;4.702;2023-11-19T12:33:19;14.20;99.90
9564;DHT22;4820;50.870;4.702;2023-11-19T12:35:46;14.10;99.90
9564;DHT22;4820;50.870;4.702;2023-11-19T12:38:19;14.10;99.90
9564;DHT22;4820;50.870;4.702;2023-11-19T12:41:02;14.10;99.90
9564;DHT22;4820;50.870;4.702;2023-11-19T12:43:28;14.00;99.90
9564;DHT22;4820;50.870;4.702;2023-11-19T12:45:54;13.90;99.90
9564;DHT22;4820;50.870;4.702;2023-11-19T12:48:20;13.70;99.90
9564;DHT22;4820;50.870;4.702;2023-11-19T12:50:52;13.60;99.90
9564;DHT22;4820;50.870;4.702;2023-11-19T12:53:20;13.60;99.90
9564;DHT22;4820;50.870;4.702;2023-11-19T12:55:46;13.50;99.90
9564;DHT22;4820;50.870;4.702;2023-11-19T13:00:59;13.40;99.90
9564;DHT22;4820;50.870;4.702;2023-11-19T13:03:32;13.30;99.90
9564;DHT22;4820;50.870;4.702;2023-11-19T13:06:06;13.30;99.90
9564;DHT22;4820;50.870;4.702;2023-11-19T13:08:51;13.40;99.90
9564;DHT22;4820;50.870;4.702;2023-11-19T13:11:33;13.40;99.90
9564;DHT22;4820;50.870;4.702;2023-11-19T13:14:01;13.40;99.90
9564;DHT22;4820;50.870;4.702;2023-11-19T13:16:29;13.50;99.90
9564;DHT22;4820;50.870;4.702;2023-11-19T13:18:55;13.60;99.90
9564;DHT22;4820;50.870;4.702;2023-11-19T13:21:20;13.60;99.90
9564;DHT22;4820;50.870;4.702;2023-11-19T13:23:46;13.70;99.90
9564;DHT22;4820;50.870;4.702;2023-11-19T13:26:12;13.70;99.90
9564;DHT22;4820;50.870;4.702;2023-11-19T13:28:38;13.80;99.90
9564;DHT22;4820;50.870;4.702;2023-11-19T13:31:04;13.90;99.90
9564;DHT22;4820;50.870;4.702;2023-11-19T13:33:30;13.90;99.90
9564;DHT22;4820;50.870;4.702;2023-11-19T13:35:56;13.80;99.90
9564;DHT22;4820;50.870;4.702;2023-11-19T13:38:22;13.80;99.90
9564;DHT22;4820;50.870;4.702;2023-11-19T13:40:49;13.80;99.90
9564;DHT22;4820;50.870;4.702;2023-11-19T13:43:15;13.80;99.90
9564;DHT22;4820;50.870;4.702;2023-11-19T13:45:41;13.80;99.90
9564;DHT22;4820;50.870;4.702;2023-11-19T13:48:07;13.80;99.90
9564;DHT22;4820;50.870;4.702;2023-11-19T13:50:32;13.70;99.90
9564;DHT22;4820;50.870;4.702;2023-11-19T13:52:59;13.60;99.90
9564;DHT22;4820;50.870;4.702;2023-11-19T13:55:25;13.60;99.90
9564;DHT22;4820;50.870;4.702;2023-11-19T13:57:51;13.50;99.90
9564;DHT22;4820;50.870;4.702;2023-11-19T14:00:17;13.40;99.90
9564;DHT22;4820;50.870;4.702;2023-11-19T14:02:45;13.40;99.90
9564;DHT22;4820;50.870;4.702;2023-11-19T14:05:12;13.30;99.90
9564;DHT22;4820;50.870;4.702;2023-11-19T14:07:41;13.20;99.90
9564;DHT22;4820;50.870;4.702;2023-11-19T14:10:08;13.10;99.90
9564;DHT22;4820;50.870;4.702;2023-11-19T14:12:37;13.10;99.90
9564;DHT22;4820;50.870;4.702;2023-11-19T14:15:07;13.10;99.90
9564;DHT22;4820;50.870;4.702;2023-11-19T14:17:34;13.00;99.90
9564;DHT22;4820;50.870;4.702;2023-11-19T14:20:02;13.00;99.90
9564;DHT22;4820;50.870;4.702;2023-11-19T14:22:29;13.00;99.90
9564;DHT22;4820;50.870;4.702;2023-11-19T14:24:56;13.10;99.90
9564;DHT22;4820;50.870;4.702;2023-11-19T14:27:21;13.10;99.90
9564;DHT22;4820;50.870;4.702;2023-11-19T14:29:48;13.10;99.90
9564;DHT22;4820;50.870;4.702;2023-11-19T14:32:13;13.10;99.90
9564;DHT22;4820;50.870;4.702;2023-11-19T14:34:39;13.10;99.90
9564;DHT22;4820;50.870;4.702;2023-11-19T14:37:05;13.10;99.90
9564;DHT22;4820;50.870;4.702;2023-11-19T14:39:32;13.10;99.90
9564;DHT22;4820;50.870;4.702;2023-11-19T14:41:57;13.10;99.90
9564;DHT22;4820;50.870;4.702;2023-11-19T14:44:27;13.10;99.90
9564;DHT22;4820;50.870;4.702;2023-11-19T14:46:54;13.10;99.90
9564;DHT22;4820;50.870;4.702;2023-11-19T14:49:20;13.10;99.90
9564;DHT22;4820;50.870;4.702;2023-11-19T14:51:45;13.10;99.90
9564;DHT22;4820;50.870;4.702;2023-11-19T14:54:11;13.00;99.90
9564;DHT22;4820;50.870;4.702;2023-11-19T14:56:37;13.00;99.90
9564;DHT22;4820;50.870;4.702;2023-11-19T14:59:04;13.00;99.90
9564;DHT22;4820;50.870;4.702;2023-11-19T15:01:29;13.00;99.90
9564;DHT22;4820;50.870;4.702;2023-11-19T15:03:56;13.00;99.90
9564;DHT22;4820;50.870;4.702;2023-11-19T15:06:25;13.00;99.90
9564;DHT22;4820;50.870;4.702;2023-11-19T15:08:52;13.00;99.90
9564;DHT22;4820;50.870;4.702;2023-11-19T15:11:18;13.00;99.90
9564;DHT22;4820;50.870;4.702;2023-11-19T15:13:44;13.10;99.90
9564;DHT22;4820;50.870;4.702;2023-11-19T15:16:09;13.10;99.90
9564;DHT22;4820;50.870;4.702;2023-11-19T15:18:40;13.00;99.90
9564;DHT22;4820;50.870;4.702;2023-11-19T15:21:06;13.00;99.90
9564;DHT22;4820;50.870;4.702;2023-11-19T15:23:33;13.00;99.90
9564;DHT22;4820;50.870;4.702;2023-11-19T15:25:59;12.90;99.90
9564;DHT22;4820;50.870;4.702;2023-11-19T15:28:24;12.90;99.90
9564;DHT22;4820;50.870;4.702;2023-11-19T15:30:50;12.90;99.90
9564;DHT22;4820;50.870;4.702;2023-11-19T15:33:16;12.90;99.90
9564;DHT22;4820;50.870;4.702;2023-11-19T15:35:41;12.80;99.90
9564;DHT22;4820;50.870;4.702;2023-11-19T15:38:07;12.90;99.90
9564;DHT22;4820;50.870;4.702;2023-11-19T15:40:35;12.90;99.90
9564;DHT22;4820;50.870;4.702;2023-11-19T15:43:04;12.90;99.90
9564;DHT22;4820;50.870;4.702;2023-11-19T15:45:29;12.90;99.90
9564;DHT22;4820;50.870;4.702;2023-11-19T15:47:55;13.00;99.90
9564;DHT22;4820;50.870;4.702;2023-11-19T15:50:21;13.00;99.90
9564;DHT22;4820;50.870;4.702;2023-11-19T15:52:46;13.00;99.90
9564;DHT22;4820;50.870;4.702;2023-11-19T15:55:13;13.10;99.90
9564;DHT22;4820;50.870;4.702;2023-11-19T15:57:39;13.10;99.90
9564;DHT22;4820;50.870;4.702;2023-11-19T16:00:05;13.10;99.90
9564;DHT22;4820;50.870;4.702;2023-11-19T16:02:31;13.10;99.90
9564;DHT22;4820;50.870;4.702;2023-11-19T16:04:56;13.10;99.90
9564;DHT22;4820;50.870;4.702;2023-11-19T16:07:22;13.20;99.90
9564;DHT22;4820;50.870;4.702;2023-11-19T16:09:47;13.20;99.90
9564;DHT22;4820;50.870;4.702;2023-11-19T16:12:14;13.20;99.90
9564;DHT22;4820;50.870;4.702;2023-11-19T16:14:39;13.20;99.90
9564;DHT22;4820;50.870;4.702;2023-11-19T16:17:05;13.20;99.90
9564;DHT22;4820;50.870;4.702;2023-11-19T16:19:34;13.20;99.90
9564;DHT22;4820;50.870;4.702;2023-11-19T16:22:00;13.20;99.90
9564;DHT22;4820;50.870;4.702;2023-11-19T16:24:35;13.10;99.90
9564;DHT22;4820;50.870;4.702;2023-11-19T16:27:02;13.10;99.90
9564;DHT22;4820;50.870;4.702;2023-11-19T16:29:28;13.00;99.90